sensor_id;sensor_type;location;lat;lon;timestamp;temperature;humidity
70170;DHT22;57543;45.442;9.212;2022-10-31T00:00:41;18.62;70.73
70170;DHT22;57543;45.442;9.212;2022-10-31T00:03:45;18.57;70.73
70170;DHT22;57543;45.442;9.212;2022-10-31T00:06:48;18.56;70.74
70170;DHT22;57543;45.442;9.212;2022-10-31T00:09:52;18.53;70.89
70170;DHT22;57543;45.442;9.212;2022-10-31T00:12:55;18.52;70.85
70170;DHT22;57543;45.442;9.212;2022-10-31T00:15:59;18.57;70.73
70170;DHT22;57543;45.442;9.212;2022-10-31T00:19:05;18.66;70.18
70170;DHT22;57543;45.442;9.212;2022-10-31T00:22:09;18.59;70.10
70170;DHT22;57543;45.442;9.212;2022-10-31T00:25:13;18.51;70.27
70170;DHT22;57543;45.442;9.212;2022-10-31T00:28:16;18.46;70.41
70170;DHT22;57543;45.442;9.212;2022-10-31T00:31:20;18.36;70.73
70170;DHT22;57543;45.442;9.212;2022-10-31T00:34:24;18.38;70.66
70170;DHT22;57543;45.442;9.212;2022-10-31T00:37:28;18.34;70.74
70170;DHT22;57543;45.442;9.212;2022-10-31T00:40:32;18.29;70.76
70170;DHT22;57543;45.442;9.212;2022-10-31T00:43:35;18.38;70.71
70170;DHT22;57543;45.442;9.212;2022-10-31T00:46:38;18.32;70.67
70170;DHT22;57543;45.442;9.212;2022-10-31T00:49:42;18.24;70.84
70170;DHT22;57543;45.442;9.212;2022-10-31T00:52:46;18.15;71.07
70170;DHT22;57543;45.442;9.212;2022-10-31T00:55:49;18.11;71.26
70170;DHT22;57543;45.442;9.212;2022-10-31T00:58:53;18.12;71.25
70170;DHT22;57543;45.442;9.212;2022-10-31T01:01:57;18.07;71.26
70170;DHT22;57543;45.442;9.212;2022-10-31T01:05:01;18.04;71.44
70170;DHT22;57543;45.442;9.212;2022-10-31T01:08:05;18.00;71.67
70170;DHT22;57543;45.442;9.212;2022-10-31T01:11:14;17.97;71.82
70170;DHT22;57543;45.442;9.212;2022-10-31T01:14:19;17.94;71.86
70170;DHT22;57543;45.442;9.212;2022-10-31T01:17:23;17.97;71.77
70170;DHT22;57543;45.442;9.212;2022-10-31T01:20:27;17.96;71.76
70170;DHT22;57543;45.442;9.212;2022-10-31T01:23:30;17.91;71.93
70170;DHT22;57543;45.442;9.212;2022-10-31T01:26:34;17.86;72.02
70170;DHT22;57543;45.442;9.212;2022-10-31T01:29:37;17.89;72.00
70170;DHT22;57543;45.442;9.212;2022-10-31T01:32:41;17.86;72.07
70170;DHT22;57543;45.442;9.212;2022-10-31T01:35:44;17.80;72.29
70170;DHT22;57543;45.442;9.212;2022-10-31T01:38:49;17.77;72.37
70170;DHT22;57543;45.442;9.212;2022-10-31T01:41:53;17.77;72.30
70170;DHT22;57543;45.442;9.212;2022-10-31T01:45:01;17.83;72.25
70170;DHT22;57543;45.442;9.212;2022-10-31T01:48:05;17.79;72.31
70170;DHT22;57543;45.442;9.212;2022-10-31T01:51:11;17.79;72.43
70170;DHT22;57543;45.442;9.212;2022-10-31T01:54:18;17.76;72.47
70170;DHT22;57543;45.442;9.212;2022-10-31T01:57:23;17.80;72.36
70170;DHT22;57543;45.442;9.212;2022-10-31T02:00:28;17.83;72.32
70170;DHT22;57543;45.442;9.212;2022-10-31T02:03:32;17.86;72.26
70170;DHT22;57543;45.442;9.212;2022-10-31T02:06:44;17.81;72.31
70170;DHT22;57543;45.442;9.212;2022-10-31T02:09:50;17.80;72.33
70170;DHT22;57543;45.442;9.212;2022-10-31T02:12:56;17.77;72.34
70170;DHT22;57543;45.442;9.212;2022-10-31T02:16:00;17.69;72.60
70170;DHT22;57543;45.442;9.212;2022-10-31T02:19:07;17.74;72.48
70170;DHT22;57543;45.442;9.212;2022-10-31T02:22:26;17.69;72.55
70170;DHT22;57543;45.442;9.212;2022-10-31T02:32:30;17.76;72.35
70170;DHT22;57543;45.442;9.212;2022-10-31T02:42:33;17.69;72.64
70170;DHT22;57543;45.442;9.212;2022-10-31T02:45:48;17.62;72.84
70170;DHT22;57543;45.442;9.212;2022-10-31T02:48:57;17.61;72.94
70170;DHT22;57543;45.442;9.212;2022-10-31T02:52:17;17.56;72.85
70170;DHT22;57543;45.442;9.212;2022-10-31T02:59:12;17.63;72.91
70170;DHT22;57543;45.442;9.212;2022-10-31T03:06:00;17.61;72.85
70170;DHT22;57543;45.442;9.212;2022-10-31T03:12:22;17.67;72.81
70170;DHT22;57543;45.442;9.212;2022-10-31T03:15:32;17.67;72.70
70170;DHT22;57543;45.442;9.212;2022-10-31T03:22:00;17.67;72.54
70170;DHT22;57543;45.442;9.212;2022-10-31T03:25:05;17.65;72.52
70170;DHT22;57543;45.442;9.212;2022-10-31T03:28:12;17.67;72.39
70170;DHT22;57543;45.442;9.212;2022-10-31T03:31:18;17.61;72.04
70170;DHT22;57543;45.442;9.212;2022-10-31T03:34:23;17.59;71.91
70170;DHT22;57543;45.442;9.212;2022-10-31T03:37:28;17.59;71.78
70170;DHT22;57543;45.442;9.212;2022-10-31T03:40:35;17.57;71.98
70170;DHT22;57543;45.442;9.212;2022-10-31T03:43:42;17.59;72.05
70170;DHT22;57543;45.442;9.212;2022-10-31T03:46:48;17.66;71.98
70170;DHT22;57543;45.442;9.212;2022-10-31T03:49:51;17.66;71.71
70170;DHT22;57543;45.442;9.212;2022-10-31T03:53:01;17.67;71.61
70170;DHT22;57543;45.442;9.212;2022-10-31T03:56:15;17.62;71.65
70170;DHT22;57543;45.442;9.212;2022-10-31T03:59:26;17.50;71.85
70170;DHT22;57543;45.442;9.212;2022-10-31T04:02:32;17.47;71.75
70170;DHT22;57543;45.442;9.212;2022-10-31T04:05:38;17.43;71.89
70170;DHT22;57543;45.442;9.212;2022-10-31T04:08:50;17.43;71.90
70170;DHT22;57543;45.442;9.212;2022-10-31T04:11:58;17.29;72.64
70170;DHT22;57543;45.442;9.212;2022-10-31T04:15:31;17.29;72.61
70170;DHT22;57543;45.442;9.212;2022-10-31T04:18:36;17.38;72.54
70170;DHT22;57543;45.442;9.212;2022-10-31T04:21:39;17.36;72.84
70170;DHT22;57543;45.442;9.212;2022-10-31T04:24:43;17.39;72.76
70170;DHT22;57543;45.442;9.212;2022-10-31T04:27:51;17.36;72.63
70170;DHT22;57543;45.442;9.212;2022-10-31T04:30:55;17.31;72.80
70170;DHT22;57543;45.442;9.212;2022-10-31T04:33:59;17.28;72.72
70170;DHT22;57543;45.442;9.212;2022-10-31T04:37:03;17.31;72.43
70170;DHT22;57543;45.442;9.212;2022-10-31T04:40:07;17.22;72.45
70170;DHT22;57543;45.442;9.212;2022-10-31T04:43:30;17.17;72.74
70170;DHT22;57543;45.442;9.212;2022-10-31T04:46:37;17.14;72.72
70170;DHT22;57543;45.442;9.212;2022-10-31T04:49:41;17.12;72.92
70170;DHT22;57543;45.442;9.212;2022-10-31T04:52:46;17.10;72.86
70170;DHT22;57543;45.442;9.212;2022-10-31T04:55:52;17.08;72.75
70170;DHT22;57543;45.442;9.212;2022-10-31T04:59:00;17.04;72.85
70170;DHT22;57543;45.442;9.212;2022-10-31T05:02:09;17.00;73.10
70170;DHT22;57543;45.442;9.212;2022-10-31T05:05:26;17.00;73.24
70170;DHT22;57543;45.442;9.212;2022-10-31T05:08:30;16.97;72.99
70170;DHT22;57543;45.442;9.212;2022-10-31T05:11:34;17.01;73.00
70170;DHT22;57543;45.442;9.212;2022-10-31T05:14:51;17.10;72.76
70170;DHT22;57543;45.442;9.212;2022-10-31T05:18:15;17.04;72.70
70170;DHT22;57543;45.442;9.212;2022-10-31T05:21:37;16.99;72.88
70170;DHT22;57543;45.442;9.212;2022-10-31T05:24:41;16.97;72.96
70170;DHT22;57543;45.442;9.212;2022-10-31T05:27:48;16.94;73.06
70170;DHT22;57543;45.442;9.212;2022-10-31T05:30:52;16.88;73.08
70170;DHT22;57543;45.442;9.212;2022-10-31T05:33:55;16.80;73.39
70170;DHT22;57543;45.442;9.212;2022-10-31T05:37:17;16.76;73.49
70170;DHT22;57543;45.442;9.212;2022-10-31T05:40:21;16.76;73.75
70170;DHT22;57543;45.442;9.212;2022-10-31T05:43:25;16.81;73.71
70170;DHT22;57543;45.442;9.212;2022-10-31T05:46:29;16.83;73.56
70170;DHT22;57543;45.442;9.212;2022-10-31T05:49:39;16.81;73.48
70170;DHT22;57543;45.442;9.212;2022-10-31T05:53:04;16.79;73.66
70170;DHT22;57543;45.442;9.212;2022-10-31T05:56:12;16.76;73.77
70170;DHT22;57543;45.442;9.212;2022-10-31T05:59:17;16.81;73.72
70170;DHT22;57543;45.442;9.212;2022-10-31T06:02:21;16.74;73.78
70170;DHT22;57543;45.442;9.212;2022-10-31T06:05:53;16.69;73.99
70170;DHT22;57543;45.442;9.212;2022-10-31T06:08:57;16.67;74.04
70170;DHT22;57543;45.442;9.212;2022-10-31T06:12:03;16.74;73.98
70170;DHT22;57543;45.442;9.212;2022-10-31T06:15:42;16.77;74.08
70170;DHT22;57543;45.442;9.212;2022-10-31T06:18:46;16.80;74.03
70170;DHT22;57543;45.442;9.212;2022-10-31T06:21:50;16.88;74.01
70170;DHT22;57543;45.442;9.212;2022-10-31T06:24:54;16.90;74.06
70170;DHT22;57543;45.442;9.212;2022-10-31T06:28:07;16.94;74.21
70170;DHT22;57543;45.442;9.212;2022-10-31T06:31:21;16.97;74.11
70170;DHT22;57543;45.442;9.212;2022-10-31T06:34:24;17.06;74.00
70170;DHT22;57543;45.442;9.212;2022-10-31T06:37:28;17.14;73.87
70170;DHT22;57543;45.442;9.212;2022-10-31T06:40:38;17.24;73.68
70170;DHT22;57543;45.442;9.212;2022-10-31T06:43:57;17.21;73.78
70170;DHT22;57543;45.442;9.212;2022-10-31T06:47:24;17.24;73.68
70170;DHT22;57543;45.442;9.212;2022-10-31T06:50:35;17.25;73.72
70170;DHT22;57543;45.442;9.212;2022-10-31T06:53:39;17.27;73.84
70170;DHT22;57543;45.442;9.212;2022-10-31T06:56:46;17.27;73.82
70170;DHT22;57543;45.442;9.212;2022-10-31T06:59:50;17.32;73.69
70170;DHT22;57543;45.442;9.212;2022-10-31T07:03:10;17.36;73.76
70170;DHT22;57543;45.442;9.212;2022-10-31T07:06:14;17.43;73.76
70170;DHT22;57543;45.442;9.212;2022-10-31T07:09:18;17.56;73.28
70170;DHT22;57543;45.442;9.212;2022-10-31T07:12:23;17.79;72.55
70170;DHT22;57543;45.442;9.212;2022-10-31T07:15:35;18.01;71.48
70170;DHT22;57543;45.442;9.212;2022-10-31T07:18:39;18.21;70.95
70170;DHT22;57543;45.442;9.212;2022-10-31T07:21:43;18.43;70.10
70170;DHT22;57543;45.442;9.212;2022-10-31T07:24:51;18.63;69.51
70170;DHT22;57543;45.442;9.212;2022-10-31T07:28:24;18.94;68.54
70170;DHT22;57543;45.442;9.212;2022-10-31T07:31:29;19.21;67.46
70170;DHT22;57543;45.442;9.212;2022-10-31T07:34:37;19.45;66.90
70170;DHT22;57543;45.442;9.212;2022-10-31T07:38:14;19.63;66.23
70170;DHT22;57543;45.442;9.212;2022-10-31T07:41:18;19.86;65.71
70170;DHT22;57543;45.442;9.212;2022-10-31T07:44:23;20.20;64.84
70170;DHT22;57543;45.442;9.212;2022-10-31T07:47:49;20.66;63.40
70170;DHT22;57543;45.442;9.212;2022-10-31T07:51:20;21.08;61.79
70170;DHT22;57543;45.442;9.212;2022-10-31T07:54:42;21.84;59.66
70170;DHT22;57543;45.442;9.212;2022-10-31T07:57:55;22.64;57.86
70170;DHT22;57543;45.442;9.212;2022-10-31T08:00:59;23.51;55.49
70170;DHT22;57543;45.442;9.212;2022-10-31T08:04:10;24.01;54.37
70170;DHT22;57543;45.442;9.212;2022-10-31T08:07:46;24.69;52.71
70170;DHT22;57543;45.442;9.212;2022-10-31T08:10:57;24.84;52.07
70170;DHT22;57543;45.442;9.212;2022-10-31T08:14:01;24.15;53.91
70170;DHT22;57543;45.442;9.212;2022-10-31T08:17:04;23.88;54.80
70170;DHT22;57543;45.442;9.212;2022-10-31T08:20:18;23.52;55.53
70170;DHT22;57543;45.442;9.212;2022-10-31T08:23:23;23.29;56.46
70170;DHT22;57543;45.442;9.212;2022-10-31T08:26:30;23.51;55.83
70170;DHT22;57543;45.442;9.212;2022-10-31T08:29:35;23.41;56.09
70170;DHT22;57543;45.442;9.212;2022-10-31T08:32:39;23.00;56.74
70170;DHT22;57543;45.442;9.212;2022-10-31T08:36:01;22.62;58.34
70170;DHT22;57543;45.442;9.212;2022-10-31T08:39:23;22.52;58.76
70170;DHT22;57543;45.442;9.212;2022-10-31T08:42:28;22.15;59.85
70170;DHT22;57543;45.442;9.212;2022-10-31T08:45:33;21.59;61.57
70170;DHT22;57543;45.442;9.212;2022-10-31T08:48:37;21.37;62.25
70170;DHT22;57543;45.442;9.212;2022-10-31T08:51:41;21.21;62.73
70170;DHT22;57543;45.442;9.212;2022-10-31T08:54:44;21.03;63.12
70170;DHT22;57543;45.442;9.212;2022-10-31T08:58:10;20.93;63.63
70170;DHT22;57543;45.442;9.212;2022-10-31T09:01:23;20.77;64.27
70170;DHT22;57543;45.442;9.212;2022-10-31T09:04:27;20.80;63.99
70170;DHT22;57543;45.442;9.212;2022-10-31T09:07:31;20.79;63.91
70170;DHT22;57543;45.442;9.212;2022-10-31T09:10:36;20.72;64.77
70170;DHT22;57543;45.442;9.212;2022-10-31T09:13:40;20.76;64.61
70170;DHT22;57543;45.442;9.212;2022-10-31T09:17:04;20.94;64.37
70170;DHT22;57543;45.442;9.212;2022-10-31T09:20:24;21.11;63.92
70170;DHT22;57543;45.442;9.212;2022-10-31T09:23:29;21.18;63.72
70170;DHT22;57543;45.442;9.212;2022-10-31T09:26:33;21.28;62.65
70170;DHT22;57543;45.442;9.212;2022-10-31T09:29:56;21.49;62.21
70170;DHT22;57543;45.442;9.212;2022-10-31T09:33:05;21.86;60.86
70170;DHT22;57543;45.442;9.212;2022-10-31T09:36:10;22.25;59.80
70170;DHT22;57543;45.442;9.212;2022-10-31T09:39:17;22.62;58.67
70170;DHT22;57543;45.442;9.212;2022-10-31T09:52:33;23.24;56.80
70170;DHT22;57543;45.442;9.212;2022-10-31T09:55:44;23.07;57.03
70170;DHT22;57543;45.442;9.212;2022-10-31T09:58:52;23.14;57.70
70170;DHT22;57543;45.442;9.212;2022-10-31T10:02:01;23.45;57.01
70170;DHT22;57543;45.442;9.212;2022-10-31T10:05:13;23.39;56.72
70170;DHT22;57543;45.442;9.212;2022-10-31T10:08:26;23.48;56.26
70170;DHT22;57543;45.442;9.212;2022-10-31T10:15:00;23.55;55.39
70170;DHT22;57543;45.442;9.212;2022-10-31T10:18:35;23.70;55.40
70170;DHT22;57543;45.442;9.212;2022-10-31T10:25:14;23.77;54.98
70170;DHT22;57543;45.442;9.212;2022-10-31T10:28:31;23.60;54.30
70170;DHT22;57543;45.442;9.212;2022-10-31T10:31:42;23.70;54.24
70170;DHT22;57543;45.442;9.212;2022-10-31T10:34:57;23.43;54.77
70170;DHT22;57543;45.442;9.212;2022-10-31T10:38:37;23.71;54.08
70170;DHT22;57543;45.442;9.212;2022-10-31T10:41:45;23.77;54.42
70170;DHT22;57543;45.442;9.212;2022-10-31T10:44:52;23.81;54.44
70170;DHT22;57543;45.442;9.212;2022-10-31T10:48:31;24.05;54.42
70170;DHT22;57543;45.442;9.212;2022-10-31T10:58:06;24.62;51.56
70170;DHT22;57543;45.442;9.212;2022-10-31T11:01:12;24.72;51.48
70170;DHT22;57543;45.442;9.212;2022-10-31T11:04:29;25.15;49.82
70170;DHT22;57543;45.442;9.212;2022-10-31T11:07:38;25.62;50.25
70170;DHT22;57543;45.442;9.212;2022-10-31T11:10:42;26.42;47.51
70170;DHT22;57543;45.442;9.212;2022-10-31T11:13:49;27.12;45.43
70170;DHT22;57543;45.442;9.212;2022-10-31T11:17:06;27.49;44.63
70170;DHT22;57543;45.442;9.212;2022-10-31T11:23:18;29.96;39.81
70170;DHT22;57543;45.442;9.212;2022-10-31T11:26:22;30.78;38.69
70170;DHT22;57543;45.442;9.212;2022-10-31T11:29:26;31.07;37.42
70170;DHT22;57543;45.442;9.212;2022-10-31T11:32:29;31.20;36.65
70170;DHT22;57543;45.442;9.212;2022-10-31T11:35:39;30.94;36.53
70170;DHT22;57543;45.442;9.212;2022-10-31T11:38:43;30.48;37.08
70170;DHT22;57543;45.442;9.212;2022-10-31T11:41:48;29.51;38.00
70170;DHT22;57543;45.442;9.212;2022-10-31T11:44:53;28.40;40.18
70170;DHT22;57543;45.442;9.212;2022-10-31T11:47:58;27.33;43.47
70170;DHT22;57543;45.442;9.212;2022-10-31T11:51:04;26.75;43.67
70170;DHT22;57543;45.442;9.212;2022-10-31T11:54:20;26.37;44.34
70170;DHT22;57543;45.442;9.212;2022-10-31T11:57:33;26.18;45.35
70170;DHT22;57543;45.442;9.212;2022-10-31T12:00:53;26.01;45.70
70170;DHT22;57543;45.442;9.212;2022-10-31T12:04:07;26.03;46.52
70170;DHT22;57543;45.442;9.212;2022-10-31T12:07:11;25.79;46.08
70170;DHT22;57543;45.442;9.212;2022-10-31T12:10:15;25.65;46.99
70170;DHT22;57543;45.442;9.212;2022-10-31T12:13:33;25.59;47.46
70170;DHT22;57543;45.442;9.212;2022-10-31T12:16:55;25.55;46.98
70170;DHT22;57543;45.442;9.212;2022-10-31T12:20:23;25.84;46.40
70170;DHT22;57543;45.442;9.212;2022-10-31T12:26:58;26.27;45.93
70170;DHT22;57543;45.442;9.212;2022-10-31T12:33:57;26.65;44.87
70170;DHT22;57543;45.442;9.212;2022-10-31T12:48:19;27.00;44.30
70170;DHT22;57543;45.442;9.212;2022-10-31T12:55:14;27.12;44.03
70170;DHT22;57543;45.442;9.212;2022-10-31T12:58:25;27.21;44.22
70170;DHT22;57543;45.442;9.212;2022-10-31T13:01:34;27.37;43.74
70170;DHT22;57543;45.442;9.212;2022-10-31T13:04:56;27.52;43.23
70170;DHT22;57543;45.442;9.212;2022-10-31T13:11:18;27.18;41.99
70170;DHT22;57543;45.442;9.212;2022-10-31T13:14:28;27.11;41.61
70170;DHT22;57543;45.442;9.212;2022-10-31T13:17:48;27.25;41.73
70170;DHT22;57543;45.442;9.212;2022-10-31T13:20:54;27.46;41.30
70170;DHT22;57543;45.442;9.212;2022-10-31T13:24:04;27.62;41.25
70170;DHT22;57543;45.442;9.212;2022-10-31T13:27:21;27.66;41.72
70170;DHT22;57543;45.442;9.212;2022-10-31T13:30:33;27.83;41.87
70170;DHT22;57543;45.442;9.212;2022-10-31T13:33:44;28.06;41.81
70170;DHT22;57543;45.442;9.212;2022-10-31T13:36:58;28.17;41.22
70170;DHT22;57543;45.442;9.212;2022-10-31T13:46:35;28.27;40.47
70170;DHT22;57543;45.442;9.212;2022-10-31T13:49:39;28.38;40.60
70170;DHT22;57543;45.442;9.212;2022-10-31T13:52:42;28.48;40.34
70170;DHT22;57543;45.442;9.212;2022-10-31T13:55:49;28.24;39.29
70170;DHT22;57543;45.442;9.212;2022-10-31T13:59:00;28.40;39.51
70170;DHT22;57543;45.442;9.212;2022-10-31T14:02:14;28.44;39.64
70170;DHT22;57543;45.442;9.212;2022-10-31T14:05:29;28.58;39.70
70170;DHT22;57543;45.442;9.212;2022-10-31T14:08:36;28.62;39.21
70170;DHT22;57543;45.442;9.212;2022-10-31T14:11:45;28.41;39.53
70170;DHT22;57543;45.442;9.212;2022-10-31T14:14:52;28.51;39.59
70170;DHT22;57543;45.442;9.212;2022-10-31T14:18:21;28.60;39.22
70170;DHT22;57543;45.442;9.212;2022-10-31T14:24:33;28.55;39.14
70170;DHT22;57543;45.442;9.212;2022-10-31T14:27:45;28.51;39.51
70170;DHT22;57543;45.442;9.212;2022-10-31T14:30:58;28.47;39.50
70170;DHT22;57543;45.442;9.212;2022-10-31T14:34:14;28.41;39.66
70170;DHT22;57543;45.442;9.212;2022-10-31T14:47:42;27.58;41.01
70170;DHT22;57543;45.442;9.212;2022-10-31T14:50:49;27.52;41.00
70170;DHT22;57543;45.442;9.212;2022-10-31T14:53:55;27.45;41.10
70170;DHT22;57543;45.442;9.212;2022-10-31T14:57:18;27.48;40.84
70170;DHT22;57543;45.442;9.212;2022-10-31T15:00:23;27.41;41.08
70170;DHT22;57543;45.442;9.212;2022-10-31T15:06:41;27.52;40.89
70170;DHT22;57543;45.442;9.212;2022-10-31T15:09:55;27.53;40.91
70170;DHT22;57543;45.442;9.212;2022-10-31T15:13:28;27.48;40.92
70170;DHT22;57543;45.442;9.212;2022-10-31T15:16:34;27.44;41.09
70170;DHT22;57543;45.442;9.212;2022-10-31T15:19:39;27.31;41.35
70170;DHT22;57543;45.442;9.212;2022-10-31T15:22:43;27.15;41.81
70170;DHT22;57543;45.442;9.212;2022-10-31T15:25:49;27.01;42.24
70170;DHT22;57543;45.442;9.212;2022-10-31T15:32:20;26.60;43.20
70170;DHT22;57543;45.442;9.212;2022-10-31T15:35:30;26.28;43.95
70170;DHT22;57543;45.442;9.212;2022-10-31T15:38:34;26.08;44.38
70170;DHT22;57543;45.442;9.212;2022-10-31T15:41:51;25.87;44.77
70170;DHT22;57543;45.442;9.212;2022-10-31T15:45:02;25.67;45.40
70170;DHT22;57543;45.442;9.212;2022-10-31T15:48:19;25.52;45.90
70170;DHT22;57543;45.442;9.212;2022-10-31T15:51:27;25.38;46.94
70170;DHT22;57543;45.442;9.212;2022-10-31T15:54:32;25.27;47.25
70170;DHT22;57543;45.442;9.212;2022-10-31T15:57:45;25.07;48.46
70170;DHT22;57543;45.442;9.212;2022-10-31T16:01:06;24.84;48.64
70170;DHT22;57543;45.442;9.212;2022-10-31T16:04:23;24.66;49.12
70170;DHT22;57543;45.442;9.212;2022-10-31T16:07:28;24.47;49.72
70170;DHT22;57543;45.442;9.212;2022-10-31T16:10:33;24.33;49.82
70170;DHT22;57543;45.442;9.212;2022-10-31T16:16:58;24.14;50.63
70170;DHT22;57543;45.442;9.212;2022-10-31T16:20:06;24.05;50.88
70170;DHT22;57543;45.442;9.212;2022-10-31T16:23:16;23.98;51.34
70170;DHT22;57543;45.442;9.212;2022-10-31T16:26:20;23.81;51.93
70170;DHT22;57543;45.442;9.212;2022-10-31T16:29:32;23.63;52.37
70170;DHT22;57543;45.442;9.212;2022-10-31T16:32:52;23.56;52.48
70170;DHT22;57543;45.442;9.212;2022-10-31T16:35:57;23.48;52.80
70170;DHT22;57543;45.442;9.212;2022-10-31T16:39:01;23.34;53.49
70170;DHT22;57543;45.442;9.212;2022-10-31T16:42:07;23.24;53.17
70170;DHT22;57543;45.442;9.212;2022-10-31T16:45:28;23.18;53.42
70170;DHT22;57543;45.442;9.212;2022-10-31T16:48:52;23.07;54.00
70170;DHT22;57543;45.442;9.212;2022-10-31T16:51:55;22.98;54.18
70170;DHT22;57543;45.442;9.212;2022-10-31T16:55:00;22.94;54.69
70170;DHT22;57543;45.442;9.212;2022-10-31T16:58:03;22.89;54.66
70170;DHT22;57543;45.442;9.212;2022-10-31T17:01:07;22.84;54.04
70170;DHT22;57543;45.442;9.212;2022-10-31T17:04:13;22.83;54.45
70170;DHT22;57543;45.442;9.212;2022-10-31T17:07:17;22.80;54.87
70170;DHT22;57543;45.442;9.212;2022-10-31T17:10:21;22.60;55.41
70170;DHT22;57543;45.442;9.212;2022-10-31T17:13:29;22.48;55.75
70170;DHT22;57543;45.442;9.212;2022-10-31T17:16:32;22.41;56.12
70170;DHT22;57543;45.442;9.212;2022-10-31T17:19:36;22.41;56.13
70170;DHT22;57543;45.442;9.212;2022-10-31T17:22:39;22.34;56.32
70170;DHT22;57543;45.442;9.212;2022-10-31T17:25:43;22.18;56.71
70170;DHT22;57543;45.442;9.212;2022-10-31T17:28:47;22.08;57.06
70170;DHT22;57543;45.442;9.212;2022-10-31T17:31:53;22.02;57.54
70170;DHT22;57543;45.442;9.212;2022-10-31T17:34:57;21.96;57.67
70170;DHT22;57543;45.442;9.212;2022-10-31T17:38:00;21.89;57.67
70170;DHT22;57543;45.442;9.212;2022-10-31T17:41:05;21.89;57.56
70170;DHT22;57543;45.442;9.212;2022-10-31T17:44:10;21.87;57.57
70170;DHT22;57543;45.442;9.212;2022-10-31T17:47:14;21.74;58.13
70170;DHT22;57543;45.442;9.212;2022-10-31T17:50:22;21.70;58.41
70170;DHT22;57543;45.442;9.212;2022-10-31T17:53:28;21.56;58.48
70170;DHT22;57543;45.442;9.212;2022-10-31T17:56:32;21.52;58.68
70170;DHT22;57543;45.442;9.212;2022-10-31T17:59:36;21.43;59.07
70170;DHT22;57543;45.442;9.212;2022-10-31T18:02:40;21.42;59.01
70170;DHT22;57543;45.442;9.212;2022-10-31T18:05:55;21.38;58.65
70170;DHT22;57543;45.442;9.212;2022-10-31T18:09:03;21.41;58.91
70170;DHT22;57543;45.442;9.212;2022-10-31T18:12:06;21.38;59.25
70170;DHT22;57543;45.442;9.212;2022-10-31T18:15:10;21.34;59.20
70170;DHT22;57543;45.442;9.212;2022-10-31T18:18:14;21.35;59.06
70170;DHT22;57543;45.442;9.212;2022-10-31T18:21:18;21.29;59.44
70170;DHT22;57543;45.442;9.212;2022-10-31T18:24:22;21.14;59.79
70170;DHT22;57543;45.442;9.212;2022-10-31T18:27:26;21.15;59.75
70170;DHT22;57543;45.442;9.212;2022-10-31T18:30:31;21.17;59.96
70170;DHT22;57543;45.442;9.212;2022-10-31T18:33:35;21.08;60.04
70170;DHT22;57543;45.442;9.212;2022-10-31T18:36:40;20.94;60.40
70170;DHT22;57543;45.442;9.212;2022-10-31T18:39:43;21.00;60.42
70170;DHT22;57543;45.442;9.212;2022-10-31T18:42:48;21.01;60.29
70170;DHT22;57543;45.442;9.212;2022-10-31T18:45:51;20.97;60.56
70170;DHT22;57543;45.442;9.212;2022-10-31T18:48:54;20.91;60.71
70170;DHT22;57543;45.442;9.212;2022-10-31T18:51:58;20.87;60.85
70170;DHT22;57543;45.442;9.212;2022-10-31T18:55:03;20.80;61.08
70170;DHT22;57543;45.442;9.212;2022-10-31T18:58:07;20.76;61.16
70170;DHT22;57543;45.442;9.212;2022-10-31T19:01:12;20.73;61.32
70170;DHT22;57543;45.442;9.212;2022-10-31T19:04:15;20.65;61.42
70170;DHT22;57543;45.442;9.212;2022-10-31T19:07:28;20.66;61.47
70170;DHT22;57543;45.442;9.212;2022-10-31T19:10:38;20.66;61.45
70170;DHT22;57543;45.442;9.212;2022-10-31T19:13:42;20.59;61.69
70170;DHT22;57543;45.442;9.212;2022-10-31T19:16:46;20.62;61.42
70170;DHT22;57543;45.442;9.212;2022-10-31T19:19:49;20.63;61.21
70170;DHT22;57543;45.442;9.212;2022-10-31T19:22:53;20.67;61.49
70170;DHT22;57543;45.442;9.212;2022-10-31T19:25:58;20.65;61.75
70170;DHT22;57543;45.442;9.212;2022-10-31T19:29:02;20.66;61.77
70170;DHT22;57543;45.442;9.212;2022-10-31T19:32:07;20.60;62.06
70170;DHT22;57543;45.442;9.212;2022-10-31T19:35:10;20.57;62.09
70170;DHT22;57543;45.442;9.212;2022-10-31T19:38:14;20.50;62.38
70170;DHT22;57543;45.442;9.212;2022-10-31T19:44:23;20.42;62.65
70170;DHT22;57543;45.442;9.212;2022-10-31T19:47:27;20.36;62.77
70170;DHT22;57543;45.442;9.212;2022-10-31T19:50:30;20.32;63.00
70170;DHT22;57543;45.442;9.212;2022-10-31T19:53:34;20.33;63.20
70170;DHT22;57543;45.442;9.212;2022-10-31T19:56:38;20.36;63.02
70170;DHT22;57543;45.442;9.212;2022-10-31T19:59:42;20.32;63.30
70170;DHT22;57543;45.442;9.212;2022-10-31T20:02:45;20.32;63.39
70170;DHT22;57543;45.442;9.212;2022-10-31T20:05:49;20.33;63.25
70170;DHT22;57543;45.442;9.212;2022-10-31T20:08:54;20.32;63.29
70170;DHT22;57543;45.442;9.212;2022-10-31T20:11:58;20.36;62.97
70170;DHT22;57543;45.442;9.212;2022-10-31T20:15:02;20.39;63.08
70170;DHT22;57543;45.442;9.212;2022-10-31T20:18:06;20.38;62.84
70170;DHT22;57543;45.442;9.212;2022-10-31T20:21:12;20.28;62.66
70170;DHT22;57543;45.442;9.212;2022-10-31T20:24:16;20.28;62.98
70170;DHT22;57543;45.442;9.212;2022-10-31T20:27:20;20.22;63.18
70170;DHT22;57543;45.442;9.212;2022-10-31T20:30:24;20.22;63.16
70170;DHT22;57543;45.442;9.212;2022-10-31T20:33:28;20.18;63.27
70170;DHT22;57543;45.442;9.212;2022-10-31T20:36:32;20.05;63.46
70170;DHT22;57543;45.442;9.212;2022-10-31T20:39:36;19.96;64.01
70170;DHT22;57543;45.442;9.212;2022-10-31T20:42:40;20.00;64.07
70170;DHT22;57543;45.442;9.212;2022-10-31T20:45:43;19.97;64.11
70170;DHT22;57543;45.442;9.212;2022-10-31T20:48:47;19.97;63.99
70170;DHT22;57543;45.442;9.212;2022-10-31T20:51:51;19.96;64.11
70170;DHT22;57543;45.442;9.212;2022-10-31T20:54:55;19.94;64.16
70170;DHT22;57543;45.442;9.212;2022-10-31T20:57:58;19.93;64.34
70170;DHT22;57543;45.442;9.212;2022-10-31T21:01:03;19.88;64.47
70170;DHT22;57543;45.442;9.212;2022-10-31T21:04:07;19.84;64.69
70170;DHT22;57543;45.442;9.212;2022-10-31T21:07:14;19.81;64.74
70170;DHT22;57543;45.442;9.212;2022-10-31T21:10:17;19.80;64.85
70170;DHT22;57543;45.442;9.212;2022-10-31T21:13:21;19.76;64.86
70170;DHT22;57543;45.442;9.212;2022-10-31T21:16:28;19.71;65.26
70170;DHT22;57543;45.442;9.212;2022-10-31T21:19:32;19.67;65.35
70170;DHT22;57543;45.442;9.212;2022-10-31T21:22:38;19.74;65.39
70170;DHT22;57543;45.442;9.212;2022-10-31T21:25:42;19.80;65.23
70170;DHT22;57543;45.442;9.212;2022-10-31T21:28:46;19.69;65.38
70170;DHT22;57543;45.442;9.212;2022-10-31T21:31:50;19.73;65.41
70170;DHT22;57543;45.442;9.212;2022-10-31T21:34:53;19.70;65.39
70170;DHT22;57543;45.442;9.212;2022-10-31T21:37:57;19.71;65.39
70170;DHT22;57543;45.442;9.212;2022-10-31T21:41:04;19.70;65.42